sensor_id;sensor_type;location;lat;lon;timestamp;P1;durP1;ratioP1;P2;durP2;ratioP2
46365;SDS011;32073;49.166;8.076;2023-06-10T00:00:23;5.47;;;4.50;;
46365;SDS011;32073;49.166;8.076;2023-06-10T00:04:24;4.68;;;3.80;;
46365;SDS011;32073;49.166;8.076;2023-06-10T00:08:27;5.05;;;3.83;;
46365;SDS011;32073;49.166;8.076;2023-06-10T00:12:29;3.53;;;3.00;;
46365;SDS011;32073;49.166;8.076;2023-06-10T00:16:31;7.53;;;4.95;;
46365;SDS011;32073;49.166;8.076;2023-06-10T00:20:31;4.72;;;3.72;;
46365;SDS011;32073;49.166;8.076;2023-06-10T00:24:32;10.07;;;5.90;;
46365;SDS011;32073;49.166;8.076;2023-06-10T00:28:33;6.03;;;4.40;;
46365;SDS011;32073;49.166;8.076;2023-06-10T00:32:37;8.30;;;5.40;;
46365;SDS011;32073;49.166;8.076;2023-06-10T00:36:38;9.18;;;4.88;;
46365;SDS011;32073;49.166;8.076;2023-06-10T00:40:38;5.35;;;4.25;;
46365;SDS011;32073;49.166;8.076;2023-06-10T00:44:40;6.53;;;5.45;;
46365;SDS011;32073;49.166;8.076;2023-06-10T00:48:41;5.88;;;4.97;;
46365;SDS011;32073;49.166;8.076;2023-06-10T00:52:44;14.00;;;9.18;;
46365;SDS011;32073;49.166;8.076;2023-06-10T00:56:46;8.88;;;6.88;;
46365;SDS011;32073;49.166;8.076;2023-06-10T01:00:48;6.80;;;5.32;;
46365;SDS011;32073;49.166;8.076;2023-06-10T01:04:49;7.10;;;5.05;;
46365;SDS011;32073;49.166;8.076;2023-06-10T01:13:25;4.75;;;3.80;;
46365;SDS011;32073;49.166;8.076;2023-06-10T01:17:31;6.25;;;3.50;;
46365;SDS011;32073;49.166;8.076;2023-06-10T01:21:32;5.18;;;3.53;;
46365;SDS011;32073;49.166;8.076;2023-06-10T01:25:33;4.95;;;3.55;;
46365;SDS011;32073;49.166;8.076;2023-06-10T01:29:47;5.50;;;3.70;;
46365;SDS011;32073;49.166;8.076;2023-06-10T01:33:56;5.05;;;3.50;;
46365;SDS011;32073;49.166;8.076;2023-06-10T01:37:56;4.45;;;3.40;;
46365;SDS011;32073;49.166;8.076;2023-06-10T01:42:00;5.45;;;3.63;;
46365;SDS011;32073;49.166;8.076;2023-06-10T01:46:03;5.70;;;3.42;;
46365;SDS011;32073;49.166;8.076;2023-06-10T01:50:04;4.05;;;3.58;;
46365;SDS011;32073;49.166;8.076;2023-06-10T01:54:06;3.60;;;3.08;;
46365;SDS011;32073;49.166;8.076;2023-06-10T01:58:06;4.60;;;3.63;;
46365;SDS011;32073;49.166;8.076;2023-06-10T02:02:07;4.47;;;3.30;;
46365;SDS011;32073;49.166;8.076;2023-06-10T02:06:08;4.88;;;3.35;;
46365;SDS011;32073;49.166;8.076;2023-06-10T02:10:08;5.68;;;3.67;;
46365;SDS011;32073;49.166;8.076;2023-06-10T02:14:09;4.43;;;3.35;;
46365;SDS011;32073;49.166;8.076;2023-06-10T02:18:10;4.65;;;3.50;;
46365;SDS011;32073;49.166;8.076;2023-06-10T02:22:12;4.72;;;3.53;;
46365;SDS011;32073;49.166;8.076;2023-06-10T02:26:13;3.47;;;3.10;;
46365;SDS011;32073;49.166;8.076;2023-06-10T02:30:13;5.18;;;3.40;;
46365;SDS011;32073;49.166;8.076;2023-06-10T02:34:15;4.22;;;3.60;;
46365;SDS011;32073;49.166;8.076;2023-06-10T02:38:16;4.07;;;3.38;;
46365;SDS011;32073;49.166;8.076;2023-06-10T02:42:16;4.00;;;3.30;;
46365;SDS011;32073;49.166;8.076;2023-06-10T02:46:17;3.97;;;3.17;;
46365;SDS011;32073;49.166;8.076;2023-06-10T02:50:18;3.85;;;3.13;;
46365;SDS011;32073;49.166;8.076;2023-06-10T02:54:21;3.85;;;3.28;;
46365;SDS011;32073;49.166;8.076;2023-06-10T02:58:25;3.47;;;3.10;;
46365;SDS011;32073;49.166;8.076;2023-06-10T03:02:26;4.25;;;3.00;;
46365;SDS011;32073;49.166;8.076;2023-06-10T03:06:28;3.40;;;2.92;;
46365;SDS011;32073;49.166;8.076;2023-06-10T03:10:29;3.72;;;3.10;;
46365;SDS011;32073;49.166;8.076;2023-06-10T03:14:31;4.03;;;3.15;;
46365;SDS011;32073;49.166;8.076;2023-06-10T03:18:32;4.45;;;3.25;;
46365;SDS011;32073;49.166;8.076;2023-06-10T03:22:33;3.88;;;3.10;;
46365;SDS011;32073;49.166;8.076;2023-06-10T03:26:33;5.85;;;3.65;;
46365;SDS011;32073;49.166;8.076;2023-06-10T03:30:34;4.00;;;3.33;;
46365;SDS011;32073;49.166;8.076;2023-06-10T03:34:35;6.22;;;3.03;;
46365;SDS011;32073;49.166;8.076;2023-06-10T03:38:35;4.05;;;3.13;;
46365;SDS011;32073;49.166;8.076;2023-06-10T03:42:36;4.13;;;3.58;;
46365;SDS011;32073;49.166;8.076;2023-06-10T03:46:38;4.70;;;3.33;;
46365;SDS011;32073;49.166;8.076;2023-06-10T03:50:39;3.80;;;3.10;;
46365;SDS011;32073;49.166;8.076;2023-06-10T03:54:39;3.72;;;3.00;;
46365;SDS011;32073;49.166;8.076;2023-06-10T03:58:40;4.85;;;3.53;;
46365;SDS011;32073;49.166;8.076;2023-06-10T04:02:41;3.95;;;3.10;;
46365;SDS011;32073;49.166;8.076;2023-06-10T04:06:45;4.80;;;3.17;;
46365;SDS011;32073;49.166;8.076;2023-06-10T04:10:46;4.38;;;3.50;;
46365;SDS011;32073;49.166;8.076;2023-06-10T04:14:47;3.78;;;3.00;;
46365;SDS011;32073;49.166;8.076;2023-06-10T04:18:47;6.30;;;3.47;;
46365;SDS011;32073;49.166;8.076;2023-06-10T04:22:48;3.97;;;3.42;;
46365;SDS011;32073;49.166;8.076;2023-06-10T04:26:49;3.65;;;3.00;;
46365;SDS011;32073;49.166;8.076;2023-06-10T04:30:49;3.17;;;2.88;;
46365;SDS011;32073;49.166;8.076;2023-06-10T04:34:50;3.75;;;3.35;;
46365;SDS011;32073;49.166;8.076;2023-06-10T04:38:50;4.00;;;3.50;;
46365;SDS011;32073;49.166;8.076;2023-06-10T04:42:52;5.57;;;3.67;;
46365;SDS011;32073;49.166;8.076;2023-06-10T04:46:52;4.07;;;3.05;;
46365;SDS011;32073;49.166;8.076;2023-06-10T04:50:54;3.60;;;2.85;;
46365;SDS011;32073;49.166;8.076;2023-06-10T04:54:59;3.65;;;3.10;;
46365;SDS011;32073;49.166;8.076;2023-06-10T04:59:00;5.10;;;3.25;;
46365;SDS011;32073;49.166;8.076;2023-06-10T05:03:01;3.70;;;3.28;;
46365;SDS011;32073;49.166;8.076;2023-06-10T05:07:01;5.30;;;3.45;;
46365;SDS011;32073;49.166;8.076;2023-06-10T05:11:02;3.70;;;3.08;;
46365;SDS011;32073;49.166;8.076;2023-06-10T05:15:03;3.67;;;3.35;;
46365;SDS011;32073;49.166;8.076;2023-06-10T05:19:04;4.47;;;3.08;;
46365;SDS011;32073;49.166;8.076;2023-06-10T05:23:05;4.70;;;3.55;;
46365;SDS011;32073;49.166;8.076;2023-06-10T05:27:06;3.50;;;3.10;;
46365;SDS011;32073;49.166;8.076;2023-06-10T05:31:07;3.50;;;3.20;;
46365;SDS011;32073;49.166;8.076;2023-06-10T05:35:07;4.32;;;3.40;;
46365;SDS011;32073;49.166;8.076;2023-06-10T05:39:09;3.30;;;2.97;;
46365;SDS011;32073;49.166;8.076;2023-06-10T05:43:10;4.70;;;3.55;;
46365;SDS011;32073;49.166;8.076;2023-06-10T05:47:11;5.00;;;3.83;;
46365;SDS011;32073;49.166;8.076;2023-06-10T05:51:11;3.25;;;2.95;;
46365;SDS011;32073;49.166;8.076;2023-06-10T05:55:12;4.10;;;3.75;;
46365;SDS011;32073;49.166;8.076;2023-06-10T05:59:13;4.07;;;3.08;;
46365;SDS011;32073;49.166;8.076;2023-06-10T06:03:13;5.30;;;3.50;;
46365;SDS011;32073;49.166;8.076;2023-06-10T06:07:14;9.23;;;3.88;;
46365;SDS011;32073;49.166;8.076;2023-06-10T06:11:15;3.50;;;3.20;;
46365;SDS011;32073;49.166;8.076;2023-06-10T06:15:16;5.78;;;3.60;;
46365;SDS011;32073;49.166;8.076;2023-06-10T06:19:16;3.67;;;3.30;;
46365;SDS011;32073;49.166;8.076;2023-06-10T06:23:17;4.00;;;3.60;;
46365;SDS011;32073;49.166;8.076;2023-06-10T06:27:17;3.88;;;3.53;;
46365;SDS011;32073;49.166;8.076;2023-06-10T06:31:18;7.22;;;3.67;;
46365;SDS011;32073;49.166;8.076;2023-06-10T06:35:19;5.65;;;4.32;;
46365;SDS011;32073;49.166;8.076;2023-06-10T06:39:19;5.60;;;3.85;;
46365;SDS011;32073;49.166;8.076;2023-06-10T06:43:20;4.30;;;3.53;;
46365;SDS011;32073;49.166;8.076;2023-06-10T06:47:21;4.20;;;3.80;;
46365;SDS011;32073;49.166;8.076;2023-06-10T06:51:21;4.88;;;3.85;;
46365;SDS011;32073;49.166;8.076;2023-06-10T06:55:22;4.93;;;4.10;;
46365;SDS011;32073;49.166;8.076;2023-06-10T06:59:23;9.43;;;4.57;;
46365;SDS011;32073;49.166;8.076;2023-06-10T07:03:25;4.80;;;4.30;;
46365;SDS011;32073;49.166;8.076;2023-06-10T07:07:26;5.93;;;4.40;;
46365;SDS011;32073;49.166;8.076;2023-06-10T07:11:26;4.85;;;4.00;;
46365;SDS011;32073;49.166;8.076;2023-06-10T07:15:27;5.03;;;3.75;;
46365;SDS011;32073;49.166;8.076;2023-06-10T07:19:28;4.88;;;4.05;;
46365;SDS011;32073;49.166;8.076;2023-06-10T07:23:29;4.40;;;4.00;;
46365;SDS011;32073;49.166;8.076;2023-06-10T07:27:29;4.95;;;3.83;;
46365;SDS011;32073;49.166;8.076;2023-06-10T07:31:30;4.68;;;3.70;;
46365;SDS011;32073;49.166;8.076;2023-06-10T07:35:31;7.05;;;4.03;;
46365;SDS011;32073;49.166;8.076;2023-06-10T07:39:31;5.00;;;4.00;;
46365;SDS011;32073;49.166;8.076;2023-06-10T07:43:32;5.03;;;4.00;;
46365;SDS011;32073;49.166;8.076;2023-06-10T07:47:33;6.00;;;4.43;;
46365;SDS011;32073;49.166;8.076;2023-06-10T07:51:34;6.45;;;3.83;;
46365;SDS011;32073;49.166;8.076;2023-06-10T07:55:36;4.90;;;4.07;;
46365;SDS011;32073;49.166;8.076;2023-06-10T07:59:37;5.35;;;4.38;;
46365;SDS011;32073;49.166;8.076;2023-06-10T08:03:38;4.05;;;3.65;;
46365;SDS011;32073;49.166;8.076;2023-06-10T08:07:39;4.47;;;3.90;;
46365;SDS011;32073;49.166;8.076;2023-06-10T08:11:40;3.55;;;3.25;;
46365;SDS011;32073;49.166;8.076;2023-06-10T08:15:41;4.38;;;3.70;;
46365;SDS011;32073;49.166;8.076;2023-06-10T08:19:41;3.47;;;3.17;;
46365;SDS011;32073;49.166;8.076;2023-06-10T08:23:42;3.58;;;3.28;;
46365;SDS011;32073;49.166;8.076;2023-06-10T08:27:44;5.35;;;3.70;;
46365;SDS011;32073;49.166;8.076;2023-06-10T08:31:44;4.95;;;3.38;;
46365;SDS011;32073;49.166;8.076;2023-06-10T08:35:45;3.38;;;3.08;;
46365;SDS011;32073;49.166;8.076;2023-06-10T08:39:45;4.82;;;3.03;;
46365;SDS011;32073;49.166;8.076;2023-06-10T08:44:03;3.53;;;2.97;;
46365;SDS011;32073;49.166;8.076;2023-06-10T08:48:14;3.25;;;2.95;;
46365;SDS011;32073;49.166;8.076;2023-06-10T08:52:20;3.25;;;2.92;;
46365;SDS011;32073;49.166;8.076;2023-06-10T08:56:21;2.92;;;2.72;;
46365;SDS011;32073;49.166;8.076;2023-06-10T09:00:23;4.18;;;3.78;;
46365;SDS011;32073;49.166;8.076;2023-06-10T09:04:26;3.33;;;3.00;;
46365;SDS011;32073;49.166;8.076;2023-06-10T09:08:27;3.75;;;2.92;;
46365;SDS011;32073;49.166;8.076;2023-06-10T09:12:28;3.88;;;3.10;;
46365;SDS011;32073;49.166;8.076;2023-06-10T09:16:29;4.05;;;3.10;;
46365;SDS011;32073;49.166;8.076;2023-06-10T09:20:30;3.13;;;2.83;;
46365;SDS011;32073;49.166;8.076;2023-06-10T09:24:31;3.42;;;2.97;;
46365;SDS011;32073;49.166;8.076;2023-06-10T09:28:33;4.53;;;3.15;;
46365;SDS011;32073;49.166;8.076;2023-06-10T09:32:37;5.22;;;3.13;;
46365;SDS011;32073;49.166;8.076;2023-06-10T09:36:39;3.63;;;3.13;;
46365;SDS011;32073;49.166;8.076;2023-06-10T09:40:48;3.63;;;3.15;;
46365;SDS011;32073;49.166;8.076;2023-06-10T09:44:56;3.75;;;3.20;;
46365;SDS011;32073;49.166;8.076;2023-06-10T09:48:57;3.75;;;3.17;;
46365;SDS011;32073;49.166;8.076;2023-06-10T09:52:58;4.28;;;3.70;;
46365;SDS011;32073;49.166;8.076;2023-06-10T09:56:59;3.70;;;3.30;;
46365;SDS011;32073;49.166;8.076;2023-06-10T10:01:09;4.25;;;3.35;;
46365;SDS011;32073;49.166;8.076;2023-06-10T10:05:13;4.75;;;3.50;;
46365;SDS011;32073;49.166;8.076;2023-06-10T10:09:15;3.40;;;3.10;;
46365;SDS011;32073;49.166;8.076;2023-06-10T10:13:16;4.88;;;2.85;;
46365;SDS011;32073;49.166;8.076;2023-06-10T10:17:18;3.75;;;3.15;;
46365;SDS011;32073;49.166;8.076;2023-06-10T10:21:24;3.35;;;3.05;;
46365;SDS011;32073;49.166;8.076;2023-06-10T10:25:28;3.30;;;3.00;;
46365;SDS011;32073;49.166;8.076;2023-06-10T10:29:41;5.20;;;2.78;;
46365;SDS011;32073;49.166;8.076;2023-06-10T10:37:58;5.65;;;3.05;;
46365;SDS011;32073;49.166;8.076;2023-06-10T10:42:00;5.07;;;3.28;;
46365;SDS011;32073;49.166;8.076;2023-06-10T10:46:11;3.72;;;3.20;;
46365;SDS011;32073;49.166;8.076;2023-06-10T10:50:17;3.83;;;3.38;;
46365;SDS011;32073;49.166;8.076;2023-06-10T10:54:19;4.00;;;2.92;;
46365;SDS011;32073;49.166;8.076;2023-06-10T10:58:30;4.70;;;2.83;;
46365;SDS011;32073;49.166;8.076;2023-06-10T11:02:32;4.20;;;3.20;;
46365;SDS011;32073;49.166;8.076;2023-06-10T11:06:35;3.58;;;2.88;;
46365;SDS011;32073;49.166;8.076;2023-06-10T11:10:40;3.22;;;2.72;;
46365;SDS011;32073;49.166;8.076;2023-06-10T11:14:42;4.47;;;2.80;;
46365;SDS011;32073;49.166;8.076;2023-06-10T11:18:55;2.72;;;2.53;;
46365;SDS011;32073;49.166;8.076;2023-06-10T11:22:58;3.83;;;2.92;;
46365;SDS011;32073;49.166;8.076;2023-06-10T11:27:15;4.20;;;2.70;;
46365;SDS011;32073;49.166;8.076;2023-06-10T11:31:24;3.55;;;2.80;;
46365;SDS011;32073;49.166;8.076;2023-06-10T11:35:27;3.35;;;2.80;;
46365;SDS011;32073;49.166;8.076;2023-06-10T11:39:29;4.28;;;3.13;;
46365;SDS011;32073;49.166;8.076;2023-06-10T11:43:31;3.90;;;3.30;;
46365;SDS011;32073;49.166;8.076;2023-06-10T11:47:32;3.83;;;2.95;;
46365;SDS011;32073;49.166;8.076;2023-06-10T11:51:33;3.22;;;2.83;;
46365;SDS011;32073;49.166;8.076;2023-06-10T11:55:41;4.25;;;3.50;;
46365;SDS011;32073;49.166;8.076;2023-06-10T11:59:42;3.70;;;3.40;;
46365;SDS011;32073;49.166;8.076;2023-06-10T12:03:43;2.90;;;2.50;;
46365;SDS011;32073;49.166;8.076;2023-06-10T12:07:43;3.45;;;2.60;;
46365;SDS011;32073;49.166;8.076;2023-06-10T12:11:45;6.07;;;3.05;;
46365;SDS011;32073;49.166;8.076;2023-06-10T12:15:49;4.65;;;2.67;;
46365;SDS011;32073;49.166;8.076;2023-06-10T12:19:50;3.05;;;2.78;;
46365;SDS011;32073;49.166;8.076;2023-06-10T12:24:24;2.90;;;2.53;;
46365;SDS011;32073;49.166;8.076;2023-06-10T12:28:25;3.50;;;2.53;;
46365;SDS011;32073;49.166;8.076;2023-06-10T12:36:37;6.90;;;2.63;;
46365;SDS011;32073;49.166;8.076;2023-06-10T12:40:39;2.95;;;2.60;;
46365;SDS011;32073;49.166;8.076;2023-06-10T12:44:41;3.15;;;2.85;;
46365;SDS011;32073;49.166;8.076;2023-06-10T12:48:51;3.42;;;2.42;;
46365;SDS011;32073;49.166;8.076;2023-06-10T12:52:52;3.40;;;3.05;;
46365;SDS011;32073;49.166;8.076;2023-06-10T12:56:52;5.10;;;2.97;;
46365;SDS011;32073;49.166;8.076;2023-06-10T13:00:53;3.60;;;2.50;;
46365;SDS011;32073;49.166;8.076;2023-06-10T13:04:54;3.95;;;2.60;;
46365;SDS011;32073;49.166;8.076;2023-06-10T13:08:54;3.35;;;2.50;;
46365;SDS011;32073;49.166;8.076;2023-06-10T13:12:55;3.25;;;2.08;;
46365;SDS011;32073;49.166;8.076;2023-06-10T13:16:56;2.63;;;2.33;;
46365;SDS011;32073;49.166;8.076;2023-06-10T13:20:56;3.13;;;2.25;;
46365;SDS011;32073;49.166;8.076;2023-06-10T13:24:57;2.40;;;2.10;;
46365;SDS011;32073;49.166;8.076;2023-06-10T13:28:59;2.50;;;2.22;;
46365;SDS011;32073;49.166;8.076;2023-06-10T13:33:03;2.45;;;2.08;;
46365;SDS011;32073;49.166;8.076;2023-06-10T13:37:03;2.75;;;2.45;;
46365;SDS011;32073;49.166;8.076;2023-06-10T13:41:05;4.38;;;2.42;;
46365;SDS011;32073;49.166;8.076;2023-06-10T13:45:06;3.60;;;2.80;;
46365;SDS011;32073;49.166;8.076;2023-06-10T13:49:09;3.15;;;2.65;;
46365;SDS011;32073;49.166;8.076;2023-06-10T13:53:10;2.65;;;2.45;;
46365;SDS011;32073;49.166;8.076;2023-06-10T13:57:10;2.72;;;2.53;;
46365;SDS011;32073;49.166;8.076;2023-06-10T14:01:11;4.35;;;2.58;;
46365;SDS011;32073;49.166;8.076;2023-06-10T14:05:11;3.10;;;2.80;;
46365;SDS011;32073;49.166;8.076;2023-06-10T14:09:12;2.30;;;2.10;;
46365;SDS011;32073;49.166;8.076;2023-06-10T14:13:14;2.75;;;2.30;;
46365;SDS011;32073;49.166;8.076;2023-06-10T14:17:15;5.22;;;2.58;;
46365;SDS011;32073;49.166;8.076;2023-06-10T14:21:15;2.50;;;2.30;;
46365;SDS011;32073;49.166;8.076;2023-06-10T14:25:16;2.72;;;2.10;;
46365;SDS011;32073;49.166;8.076;2023-06-10T14:29:19;3.45;;;2.40;;
46365;SDS011;32073;49.166;8.076;2023-06-10T14:33:20;2.20;;;2.00;;
46365;SDS011;32073;49.166;8.076;2023-06-10T14:37:21;2.28;;;2.08;;
46365;SDS011;32073;49.166;8.076;2023-06-10T14:41:21;2.60;;;2.13;;
46365;SDS011;32073;49.166;8.076;2023-06-10T14:45:22;2.25;;;2.00;;
46365;SDS011;32073;49.166;8.076;2023-06-10T14:49:24;2.50;;;2.10;;
46365;SDS011;32073;49.166;8.076;2023-06-10T14:53:25;3.70;;;2.60;;
46365;SDS011;32073;49.166;8.076;2023-06-10T14:57:25;2.95;;;2.20;;
46365;SDS011;32073;49.166;8.076;2023-06-10T15:01:26;2.70;;;2.22;;
46365;SDS011;32073;49.166;8.076;2023-06-10T15:05:26;2.92;;;2.42;;
46365;SDS011;32073;49.166;8.076;2023-06-10T15:09:27;2.67;;;2.28;;
46365;SDS011;32073;49.166;8.076;2023-06-10T15:13:28;3.22;;;2.05;;
46365;SDS011;32073;49.166;8.076;2023-06-10T15:17:29;2.42;;;2.22;;
46365;SDS011;32073;49.166;8.076;2023-06-10T15:21:29;2.58;;;2.15;;
46365;SDS011;32073;49.166;8.076;2023-06-10T15:25:30;3.65;;;1.80;;
46365;SDS011;32073;49.166;8.076;2023-06-10T15:29:30;2.20;;;2.00;;
46365;SDS011;32073;49.166;8.076;2023-06-10T15:33:31;3.40;;;2.00;;
46365;SDS011;32073;49.166;8.076;2023-06-10T15:37:32;2.10;;;1.80;;
46365;SDS011;32073;49.166;8.076;2023-06-10T15:41:33;2.58;;;1.92;;
46365;SDS011;32073;49.166;8.076;2023-06-10T15:45:34;2.50;;;1.73;;
46365;SDS011;32073;49.166;8.076;2023-06-10T15:49:35;2.47;;;1.90;;
46365;SDS011;32073;49.166;8.076;2023-06-10T15:53:35;2.50;;;1.88;;
46365;SDS011;32073;49.166;8.076;2023-06-10T15:57:36;2.58;;;1.90;;
46365;SDS011;32073;49.166;8.076;2023-06-10T16:01:37;2.70;;;1.88;;
46365;SDS011;32073;49.166;8.076;2023-06-10T16:05:37;2.72;;;2.05;;
46365;SDS011;32073;49.166;8.076;2023-06-10T16:09:38;3.60;;;1.90;;
46365;SDS011;32073;49.166;8.076;2023-06-10T16:13:39;5.22;;;1.98;;
46365;SDS011;32073;49.166;8.076;2023-06-10T16:17:41;2.10;;;1.90;;
46365;SDS011;32073;49.166;8.076;2023-06-10T16:21:42;2.20;;;2.00;;
46365;SDS011;32073;49.166;8.076;2023-06-10T16:25:43;1.90;;;1.80;;
46365;SDS011;32073;49.166;8.076;2023-06-10T16:29:44;2.58;;;1.92;;
46365;SDS011;32073;49.166;8.076;2023-06-10T16:33:45;2.55;;;2.15;;
46365;SDS011;32073;49.166;8.076;2023-06-10T16:37:45;2.83;;;2.20;;
46365;SDS011;32073;49.166;8.076;2023-06-10T16:41:46;2.45;;;2.10;;
46365;SDS011;32073;49.166;8.076;2023-06-10T16:45:46;3.22;;;2.30;;
46365;SDS011;32073;49.166;8.076;2023-06-10T16:49:47;5.43;;;2.33;;
46365;SDS011;32073;49.166;8.076;2023-06-10T16:53:48;3.30;;;2.20;;
46365;SDS011;32073;49.166;8.076;2023-06-10T16:57:48;3.10;;;2.22;;
46365;SDS011;32073;49.166;8.076;2023-06-10T17:01:52;3.08;;;2.17;;
46365;SDS011;32073;49.166;8.076;2023-06-10T17:05:52;2.40;;;2.10;;
46365;SDS011;32073;49.166;8.076;2023-06-10T17:09:53;2.40;;;2.20;;
46365;SDS011;32073;49.166;8.076;2023-06-10T17:13:53;2.50;;;2.20;;
46365;SDS011;32073;49.166;8.076;2023-06-10T17:17:54;2.67;;;2.47;;
46365;SDS011;32073;49.166;8.076;2023-06-10T17:21:55;3.90;;;2.55;;
46365;SDS011;32073;49.166;8.076;2023-06-10T17:25:57;3.65;;;2.60;;
46365;SDS011;32073;49.166;8.076;2023-06-10T17:29:57;3.45;;;2.55;;
46365;SDS011;32073;49.166;8.076;2023-06-10T17:33:58;7.95;;;2.70;;
46365;SDS011;32073;49.166;8.076;2023-06-10T17:37:59;3.10;;;2.25;;
46365;SDS011;32073;49.166;8.076;2023-06-10T17:41:59;3.85;;;2.40;;
46365;SDS011;32073;49.166;8.076;2023-06-10T17:46:00;5.97;;;3.08;;
46365;SDS011;32073;49.166;8.076;2023-06-10T17:50:02;4.47;;;2.35;;
46365;SDS011;32073;49.166;8.076;2023-06-10T17:54:03;3.45;;;2.60;;
46365;SDS011;32073;49.166;8.076;2023-06-10T17:58:06;4.78;;;2.40;;
46365;SDS011;32073;49.166;8.076;2023-06-10T18:02:07;4.55;;;2.15;;
46365;SDS011;32073;49.166;8.076;2023-06-10T18:06:08;2.83;;;2.50;;
46365;SDS011;32073;49.166;8.076;2023-06-10T18:10:09;3.83;;;2.45;;
46365;SDS011;32073;49.166;8.076;2023-06-10T18:14:10;3.53;;;2.28;;
46365;SDS011;32073;49.166;8.076;2023-06-10T18:18:11;2.90;;;2.35;;
46365;SDS011;32073;49.166;8.076;2023-06-10T18:22:11;2.83;;;2.30;;
46365;SDS011;32073;49.166;8.076;2023-06-10T18:26:12;2.95;;;2.63;;
46365;SDS011;32073;49.166;8.076;2023-06-10T18:30:13;2.28;;;2.08;;
46365;SDS011;32073;49.166;8.076;2023-06-10T18:34:13;2.67;;;2.35;;
46365;SDS011;32073;49.166;8.076;2023-06-10T18:38:14;2.80;;;2.45;;
46365;SDS011;32073;49.166;8.076;2023-06-10T18:42:15;4.22;;;2.35;;
46365;SDS011;32073;49.166;8.076;2023-06-10T18:46:16;4.10;;;2.58;;
46365;SDS011;32073;49.166;8.076;2023-06-10T18:50:17;3.78;;;2.58;;
46365;SDS011;32073;49.166;8.076;2023-06-10T18:54:18;2.65;;;2.45;;
46365;SDS011;32073;49.166;8.076;2023-06-10T18:58:19;2.80;;;2.47;;
46365;SDS011;32073;49.166;8.076;2023-06-10T19:02:20;2.92;;;2.55;;
46365;SDS011;32073;49.166;8.076;2023-06-10T19:06:21;3.88;;;2.50;;
46365;SDS011;32073;49.166;8.076;2023-06-10T19:10:22;2.50;;;2.30;;
46365;SDS011;32073;49.166;8.076;2023-06-10T19:14:23;3.55;;;2.50;;
46365;SDS011;32073;49.166;8.076;2023-06-10T19:18:24;2.33;;;2.13;;
46365;SDS011;32073;49.166;8.076;2023-06-10T19:22:24;3.30;;;2.22;;
46365;SDS011;32073;49.166;8.076;2023-06-10T19:26:25;2.70;;;2.50;;
46365;SDS011;32073;49.166;8.076;2023-06-10T19:30:26;2.97;;;2.40;;
46365;SDS011;32073;49.166;8.076;2023-06-10T19:34:27;5.55;;;2.45;;
46365;SDS011;32073;49.166;8.076;2023-06-10T19:38:28;2.97;;;2.42;;
46365;SDS011;32073;49.166;8.076;2023-06-10T19:42:28;4.88;;;2.30;;
46365;SDS011;32073;49.166;8.076;2023-06-10T19:46:29;4.22;;;2.22;;
46365;SDS011;32073;49.166;8.076;2023-06-10T19:50:30;3.25;;;2.22;;
46365;SDS011;32073;49.166;8.076;2023-06-10T19:54:34;3.95;;;2.10;;
46365;SDS011;32073;49.166;8.076;2023-06-10T19:58:36;3.17;;;2.63;;
46365;SDS011;32073;49.166;8.076;2023-06-10T20:02:36;3.40;;;2.25;;
46365;SDS011;32073;49.166;8.076;2023-06-10T20:06:38;2.47;;;1.88;;
46365;SDS011;32073;49.166;8.076;2023-06-10T20:10:39;1.92;;;1.77;;
46365;SDS011;32073;49.166;8.076;2023-06-10T20:14:40;1.90;;;1.70;;
46365;SDS011;32073;49.166;8.076;2023-06-10T20:18:41;1.85;;;1.75;;
46365;SDS011;32073;49.166;8.076;2023-06-10T20:22:42;2.22;;;2.00;;
46365;SDS011;32073;49.166;8.076;2023-06-10T20:26:42;3.17;;;2.08;;
46365;SDS011;32073;49.166;8.076;2023-06-10T20:30:43;2.95;;;2.03;;
46365;SDS011;32073;49.166;8.076;2023-06-10T20:34:43;2.55;;;2.03;;
46365;SDS011;32073;49.166;8.076;2023-06-10T20:38:45;3.17;;;2.35;;
46365;SDS011;32073;49.166;8.076;2023-06-10T20:42:46;2.50;;;2.30;;
46365;SDS011;32073;49.166;8.076;2023-06-10T20:46:47;2.60;;;2.38;;
46365;SDS011;32073;49.166;8.076;2023-06-10T20:50:48;2.90;;;2.10;;
46365;SDS011;32073;49.166;8.076;2023-06-10T20:54:49;2.35;;;2.10;;
46365;SDS011;32073;49.166;8.076;2023-06-10T20:58:50;3.80;;;1.92;;
46365;SDS011;32073;49.166;8.076;2023-06-10T21:02:50;2.67;;;2.42;;
46365;SDS011;32073;49.166;8.076;2023-06-10T21:06:51;3.08;;;2.08;;
46365;SDS011;32073;49.166;8.076;2023-06-10T21:10:52;2.78;;;2.33;;
46365;SDS011;32073;49.166;8.076;2023-06-10T21:14:53;2.90;;;2.28;;
46365;SDS011;32073;49.166;8.076;2023-06-10T21:18:53;2.65;;;2.42;;
46365;SDS011;32073;49.166;8.076;2023-06-10T21:22:54;2.88;;;2.38;;
46365;SDS011;32073;49.166;8.076;2023-06-10T21:26:54;3.28;;;2.45;;
46365;SDS011;32073;49.166;8.076;2023-06-10T21:30:55;3.70;;;2.40;;
46365;SDS011;32073;49.166;8.076;2023-06-10T21:34:56;2.88;;;2.15;;
46365;SDS011;32073;49.166;8.076;2023-06-10T21:38:56;3.63;;;2.50;;
46365;SDS011;32073;49.166;8.076;2023-06-10T21:42:57;2.50;;;2.25;;
46365;SDS011;32073;49.166;8.076;2023-06-10T21:46:57;2.85;;;2.55;;
46365;SDS011;32073;49.166;8.076;2023-06-10T21:50:58;2.60;;;2.40;;
46365;SDS011;32073;49.166;8.076;2023-06-10T21:54:59;2.63;;;2.42;;
46365;SDS011;32073;49.166;8.076;2023-06-10T21:59:00;3.25;;;2.75;;
46365;SDS011;32073;49.166;8.076;2023-06-10T22:03:01;3.10;;;2.80;;
46365;SDS011;32073;49.166;8.076;2023-06-10T22:07:01;5.93;;;3.05;;
46365;SDS011;32073;49.166;8.076;2023-06-10T22:11:02;5.13;;;3.10;;
46365;SDS011;32073;49.166;8.076;2023-06-10T22:15:03;3.95;;;2.25;;
46365;SDS011;32073;49.166;8.076;2023-06-10T22:19:04;4.35;;;2.50;;
46365;SDS011;32073;49.166;8.076;2023-06-10T22:23:04;3.17;;;2.88;;
46365;SDS011;32073;49.166;8.076;2023-06-10T22:27:05;3.00;;;2.65;;
46365;SDS011;32073;49.166;8.076;2023-06-10T22:31:08;3.03;;;2.60;;
46365;SDS011;32073;49.166;8.076;2023-06-10T22:35:10;3.20;;;2.90;;
46365;SDS011;32073;49.166;8.076;2023-06-10T22:39:11;3.60;;;3.08;;
46365;SDS011;32073;49.166;8.076;2023-06-10T22:43:12;4.38;;;3.08;;
46365;SDS011;32073;49.166;8.076;2023-06-10T22:47:12;3.40;;;2.83;;
46365;SDS011;32073;49.166;8.076;2023-06-10T22:51:13;3.50;;;2.58;;
46365;SDS011;32073;49.166;8.076;2023-06-10T22:55:14;3.38;;;2.70;;
46365;SDS011;32073;49.166;8.076;2023-06-10T22:59:14;2.80;;;2.60;;
46365;SDS011;32073;49.166;8.076;2023-06-10T23:03:15;2.80;;;2.35;;
46365;SDS011;32073;49.166;8.076;2023-06-10T23:07:16;4.18;;;2.70;;
46365;SDS011;32073;49.166;8.076;2023-06-10T23:11:19;3.15;;;2.50;;
46365;SDS011;32073;49.166;8.076;2023-06-10T23:15:20;3.88;;;2.70;;
46365;SDS011;32073;49.166;8.076;2023-06-10T23:19:21;3.30;;;2.88;;
46365;SDS011;32073;49.166;8.076;2023-06-10T23:23:22;3.10;;;2.80;;
46365;SDS011;32073;49.166;8.076;2023-06-10T23:27:32;3.50;;;2.30;;
46365;SDS011;32073;49.166;8.076;2023-06-10T23:31:33;4.55;;;2.70;;
46365;SDS011;32073;49.166;8.076;2023-06-10T23:35:33;3.67;;;2.55;;
46365;SDS011;32073;49.166;8.076;2023-06-10T23:39:34;5.50;;;3.20;;
46365;SDS011;32073;49.166;8.076;2023-06-10T23:43:35;3.00;;;2.70;;
46365;SDS011;32073;49.166;8.076;2023-06-10T23:47:35;3.35;;;3.05;;
46365;SDS011;32073;49.166;8.076;2023-06-10T23:51:37;3.30;;;2.83;;
46365;SDS011;32073;49.166;8.076;2023-06-10T23:55:38;2.65;;;2.45;;
46365;SDS011;32073;49.166;8.076;2023-06-10T23:59:39;3.78;;;3.13;;
